sensor_id;sensor_type;location;lat;lon;timestamp;pressure;altitude;pressure_sealevel;temperature;humidity
4085;BME280;2057;50.858;6.572;2022-09-24T00:01:50;100103.72;;;13.25;98.66
4085;BME280;2057;50.858;6.572;2022-09-24T00:04:16;100106.97;;;12.93;100.00
4085;BME280;2057;50.858;6.572;2022-09-24T00:06:44;100109.34;;;12.89;100.00
4085;BME280;2057;50.858;6.572;2022-09-24T00:09:11;100101.97;;;12.70;100.00
4085;BME280;2057;50.858;6.572;2022-09-24T00:11:38;100102.31;;;12.81;100.00
4085;BME280;2057;50.858;6.572;2022-09-24T00:14:03;100105.84;;;12.85;100.00
4085;BME280;2057;50.858;6.572;2022-09-24T00:16:31;100105.81;;;12.59;100.00
4085;BME280;2057;50.858;6.572;2022-09-24T00:18:59;100108.63;;;12.67;100.00
4085;BME280;2057;50.858;6.572;2022-09-24T00:21:30;100109.00;;;12.53;100.00
4085;BME280;2057;50.858;6.572;2022-09-24T00:24:01;100120.03;;;12.52;100.00
4085;BME280;2057;50.858;6.572;2022-09-24T00:26:27;100108.19;;;12.54;100.00
4085;BME280;2057;50.858;6.572;2022-09-24T00:29:18;100111.41;;;12.49;100.00
4085;BME280;2057;50.858;6.572;2022-09-24T00:31:45;100109.13;;;12.57;100.00
4085;BME280;2057;50.858;6.572;2022-09-24T00:34:10;100102.22;;;12.52;100.00
4085;BME280;2057;50.858;6.572;2022-09-24T00:36:36;100105.66;;;12.54;100.00
4085;BME280;2057;50.858;6.572;2022-09-24T00:39:03;100098.66;;;12.49;100.00
4085;BME280;2057;50.858;6.572;2022-09-24T00:41:30;100103.03;;;12.51;100.00
4085;BME280;2057;50.858;6.572;2022-09-24T00:43:57;100097.16;;;12.54;100.00
4085;BME280;2057;50.858;6.572;2022-09-24T00:46:40;100103.03;;;12.51;100.00
4085;BME280;2057;50.858;6.572;2022-09-24T00:49:14;100097.38;;;12.60;100.00
4085;BME280;2057;50.858;6.572;2022-09-24T00:51:43;100094.56;;;12.52;100.00
4085;BME280;2057;50.858;6.572;2022-09-24T00:54:16;100090.28;;;12.51;100.00
4085;BME280;2057;50.858;6.572;2022-09-24T00:56:43;100092.59;;;12.69;100.00
4085;BME280;2057;50.858;6.572;2022-09-24T00:59:13;100084.50;;;12.81;100.00
4085;BME280;2057;50.858;6.572;2022-09-24T01:01:42;100089.69;;;12.84;100.00
4085;BME280;2057;50.858;6.572;2022-09-24T01:04:09;100090.69;;;12.90;100.00
4085;BME280;2057;50.858;6.572;2022-09-24T01:06:35;100083.94;;;12.90;100.00
4085;BME280;2057;50.858;6.572;2022-09-24T01:09:02;100086.53;;;12.92;100.00
4085;BME280;2057;50.858;6.572;2022-09-24T01:11:41;100082.06;;;12.84;100.00
4085;BME280;2057;50.858;6.572;2022-09-24T01:19:47;100072.72;;;12.59;100.00
4085;BME280;2057;50.858;6.572;2022-09-24T01:22:41;100065.34;;;12.67;100.00
4085;BME280;2057;50.858;6.572;2022-09-24T01:30:30;100065.28;;;12.91;100.00
4085;BME280;2057;50.858;6.572;2022-09-24T01:33:01;100064.38;;;12.89;100.00
4085;BME280;2057;50.858;6.572;2022-09-24T01:35:32;100058.31;;;12.85;100.00
4085;BME280;2057;50.858;6.572;2022-09-24T01:38:03;100062.38;;;12.80;100.00
4085;BME280;2057;50.858;6.572;2022-09-24T01:40:31;100058.72;;;12.72;100.00
4085;BME280;2057;50.858;6.572;2022-09-24T01:42:58;100051.22;;;12.77;100.00
4085;BME280;2057;50.858;6.572;2022-09-24T01:45:25;100059.81;;;12.80;100.00
4085;BME280;2057;50.858;6.572;2022-09-24T01:47:54;100053.53;;;12.69;100.00
4085;BME280;2057;50.858;6.572;2022-09-24T01:50:20;100055.97;;;12.66;100.00
4085;BME280;2057;50.858;6.572;2022-09-24T01:53:00;100058.41;;;12.63;100.00
4085;BME280;2057;50.858;6.572;2022-09-24T01:55:30;100049.19;;;12.66;100.00
4085;BME280;2057;50.858;6.572;2022-09-24T01:58:03;100049.59;;;12.53;100.00
4085;BME280;2057;50.858;6.572;2022-09-24T02:00:33;100050.44;;;12.53;100.00
4085;BME280;2057;50.858;6.572;2022-09-24T02:05:47;100048.28;;;12.64;100.00
4085;BME280;2057;50.858;6.572;2022-09-24T02:08:24;100041.38;;;12.62;100.00
4085;BME280;2057;50.858;6.572;2022-09-24T02:13:30;100025.41;;;12.66;100.00
4085;BME280;2057;50.858;6.572;2022-09-24T02:15:59;100033.03;;;12.66;100.00
4085;BME280;2057;50.858;6.572;2022-09-24T02:18:32;100031.31;;;12.65;100.00
4085;BME280;2057;50.858;6.572;2022-09-24T02:21:02;100039.88;;;12.67;100.00
4085;BME280;2057;50.858;6.572;2022-09-24T02:23:30;100039.44;;;12.54;100.00
4085;BME280;2057;50.858;6.572;2022-09-24T02:25:59;100038.63;;;12.30;100.00
4085;BME280;2057;50.858;6.572;2022-09-24T02:28:28;100033.38;;;12.25;100.00
4085;BME280;2057;50.858;6.572;2022-09-24T02:31:13;100035.97;;;12.02;100.00
4085;BME280;2057;50.858;6.572;2022-09-24T02:33:41;100032.50;;;12.00;100.00
4085;BME280;2057;50.858;6.572;2022-09-24T02:36:28;100019.44;;;12.14;100.00
4085;BME280;2057;50.858;6.572;2022-09-24T02:38:53;100022.09;;;12.18;100.00
4085;BME280;2057;50.858;6.572;2022-09-24T02:41:20;100013.88;;;12.26;100.00
4085;BME280;2057;50.858;6.572;2022-09-24T02:43:47;100019.38;;;12.38;100.00
4085;BME280;2057;50.858;6.572;2022-09-24T02:46:13;100016.03;;;12.39;100.00
4085;BME280;2057;50.858;6.572;2022-09-24T02:48:38;100013.63;;;12.44;100.00
4085;BME280;2057;50.858;6.572;2022-09-24T02:51:04;100010.00;;;12.37;100.00
4085;BME280;2057;50.858;6.572;2022-09-24T02:53:31;100008.19;;;12.33;100.00
4085;BME280;2057;50.858;6.572;2022-09-24T02:55:58;99998.31;;;12.42;100.00
4085;BME280;2057;50.858;6.572;2022-09-24T02:58:27;99999.38;;;12.49;100.00
4085;BME280;2057;50.858;6.572;2022-09-24T03:00:53;100003.88;;;12.56;100.00
4085;BME280;2057;50.858;6.572;2022-09-24T03:03:22;100000.56;;;12.59;100.00
4085;BME280;2057;50.858;6.572;2022-09-24T03:05:52;99997.13;;;12.58;100.00
4085;BME280;2057;50.858;6.572;2022-09-24T03:08:19;99989.56;;;12.60;100.00
4085;BME280;2057;50.858;6.572;2022-09-24T03:10:45;99995.28;;;12.52;100.00
4085;BME280;2057;50.858;6.572;2022-09-24T03:13:11;99999.22;;;12.44;100.00
4085;BME280;2057;50.858;6.572;2022-09-24T03:15:36;100001.47;;;12.35;100.00
4085;BME280;2057;50.858;6.572;2022-09-24T03:18:02;99999.00;;;12.38;100.00
4085;BME280;2057;50.858;6.572;2022-09-24T03:20:28;99991.50;;;12.41;100.00
4085;BME280;2057;50.858;6.572;2022-09-24T03:22:53;99994.13;;;12.44;100.00
4085;BME280;2057;50.858;6.572;2022-09-24T03:25:19;99998.25;;;12.40;100.00
4085;BME280;2057;50.858;6.572;2022-09-24T03:27:47;99987.25;;;12.42;100.00
4085;BME280;2057;50.858;6.572;2022-09-24T03:30:12;99978.59;;;12.36;100.00
4085;BME280;2057;50.858;6.572;2022-09-24T03:32:57;99980.38;;;12.39;100.00
4085;BME280;2057;50.858;6.572;2022-09-24T03:35:22;99992.66;;;12.25;100.00
4085;BME280;2057;50.858;6.572;2022-09-24T03:37:47;99992.97;;;12.10;100.00
4085;BME280;2057;50.858;6.572;2022-09-24T03:40:13;99990.75;;;12.19;100.00
4085;BME280;2057;50.858;6.572;2022-09-24T03:42:38;99984.75;;;12.17;100.00
4085;BME280;2057;50.858;6.572;2022-09-24T03:45:05;99983.81;;;12.14;100.00
4085;BME280;2057;50.858;6.572;2022-09-24T03:47:31;99983.72;;;12.12;100.00
4085;BME280;2057;50.858;6.572;2022-09-24T03:49:56;99985.19;;;12.05;100.00
4085;BME280;2057;50.858;6.572;2022-09-24T03:52:22;99977.47;;;12.02;100.00
4085;BME280;2057;50.858;6.572;2022-09-24T03:54:48;99976.50;;;11.99;100.00
4085;BME280;2057;50.858;6.572;2022-09-24T03:57:14;99983.25;;;11.98;100.00
4085;BME280;2057;50.858;6.572;2022-09-24T03:59:40;99982.78;;;11.86;100.00
4085;BME280;2057;50.858;6.572;2022-09-24T04:02:06;99984.22;;;12.02;100.00
4085;BME280;2057;50.858;6.572;2022-09-24T04:04:32;99978.59;;;12.11;100.00
4085;BME280;2057;50.858;6.572;2022-09-24T04:06:57;99971.88;;;12.13;100.00
4085;BME280;2057;50.858;6.572;2022-09-24T04:09:23;99979.56;;;12.14;100.00
4085;BME280;2057;50.858;6.572;2022-09-24T04:11:48;99973.50;;;12.11;100.00
4085;BME280;2057;50.858;6.572;2022-09-24T04:14:16;99977.06;;;12.16;100.00
4085;BME280;2057;50.858;6.572;2022-09-24T04:16:42;99971.31;;;12.21;100.00
4085;BME280;2057;50.858;6.572;2022-09-24T04:19:07;99967.09;;;12.22;100.00
4085;BME280;2057;50.858;6.572;2022-09-24T04:21:32;99969.50;;;12.17;100.00
4085;BME280;2057;50.858;6.572;2022-09-24T04:23:58;99971.19;;;12.18;100.00
4085;BME280;2057;50.858;6.572;2022-09-24T04:26:23;99968.47;;;12.12;100.00
4085;BME280;2057;50.858;6.572;2022-09-24T04:28:51;99970.06;;;12.10;100.00
4085;BME280;2057;50.858;6.572;2022-09-24T04:31:16;99968.91;;;12.00;100.00
4085;BME280;2057;50.858;6.572;2022-09-24T04:33:41;99960.97;;;11.92;100.00
4085;BME280;2057;50.858;6.572;2022-09-24T04:36:07;99965.06;;;11.89;100.00
4085;BME280;2057;50.858;6.572;2022-09-24T04:38:32;99960.28;;;11.97;100.00
4085;BME280;2057;50.858;6.572;2022-09-24T04:41:07;99958.53;;;11.96;100.00
4085;BME280;2057;50.858;6.572;2022-09-24T04:43:33;99952.09;;;12.05;100.00
4085;BME280;2057;50.858;6.572;2022-09-24T04:46:01;99953.75;;;12.03;100.00
4085;BME280;2057;50.858;6.572;2022-09-24T04:48:26;99954.59;;;12.04;100.00
4085;BME280;2057;50.858;6.572;2022-09-24T04:50:52;99957.34;;;12.10;100.00
4085;BME280;2057;50.858;6.572;2022-09-24T04:53:17;99962.25;;;12.04;100.00
4085;BME280;2057;50.858;6.572;2022-09-24T04:55:43;99953.69;;;12.02;100.00
4085;BME280;2057;50.858;6.572;2022-09-24T04:58:09;99949.84;;;12.13;100.00
4085;BME280;2057;50.858;6.572;2022-09-24T05:00:34;99951.06;;;12.24;100.00
4085;BME280;2057;50.858;6.572;2022-09-24T05:03:01;99951.72;;;12.19;100.00
4085;BME280;2057;50.858;6.572;2022-09-24T05:05:30;99955.19;;;12.21;100.00
4085;BME280;2057;50.858;6.572;2022-09-24T05:07:57;99955.53;;;12.06;100.00
4085;BME280;2057;50.858;6.572;2022-09-24T05:10:23;99957.91;;;12.01;100.00
4085;BME280;2057;50.858;6.572;2022-09-24T05:12:48;99962.28;;;12.05;100.00
4085;BME280;2057;50.858;6.572;2022-09-24T05:15:14;99969.44;;;11.91;100.00
4085;BME280;2057;50.858;6.572;2022-09-24T05:17:39;99966.66;;;11.85;100.00
4085;BME280;2057;50.858;6.572;2022-09-24T05:20:06;99955.41;;;11.79;100.00
4085;BME280;2057;50.858;6.572;2022-09-24T05:22:32;99955.81;;;11.91;100.00
4085;BME280;2057;50.858;6.572;2022-09-24T05:24:58;99958.78;;;12.02;100.00
4085;BME280;2057;50.858;6.572;2022-09-24T05:27:23;99961.44;;;12.05;100.00
4085;BME280;2057;50.858;6.572;2022-09-24T05:29:48;99959.75;;;12.05;100.00
4085;BME280;2057;50.858;6.572;2022-09-24T05:32:17;99961.56;;;12.08;100.00
4085;BME280;2057;50.858;6.572;2022-09-24T05:34:43;99959.53;;;11.99;100.00
4085;BME280;2057;50.858;6.572;2022-09-24T05:37:10;99956.94;;;11.98;100.00
4085;BME280;2057;50.858;6.572;2022-09-24T05:39:35;99961.47;;;12.06;100.00
4085;BME280;2057;50.858;6.572;2022-09-24T05:42:01;99966.06;;;12.17;100.00
4085;BME280;2057;50.858;6.572;2022-09-24T05:44:30;99970.00;;;12.07;100.00
4085;BME280;2057;50.858;6.572;2022-09-24T05:46:56;99965.50;;;12.00;100.00
4085;BME280;2057;50.858;6.572;2022-09-24T05:49:22;99969.91;;;12.05;100.00
4085;BME280;2057;50.858;6.572;2022-09-24T05:51:48;99971.00;;;12.12;100.00
4085;BME280;2057;50.858;6.572;2022-09-24T05:54:17;99971.00;;;12.12;100.00
4085;BME280;2057;50.858;6.572;2022-09-24T05:56:44;99974.59;;;12.17;100.00
4085;BME280;2057;50.858;6.572;2022-09-24T05:59:10;99968.78;;;12.21;100.00
4085;BME280;2057;50.858;6.572;2022-09-24T06:01:35;99972.19;;;12.22;100.00
4085;BME280;2057;50.858;6.572;2022-09-24T06:04:01;99974.59;;;12.17;100.00
4085;BME280;2057;50.858;6.572;2022-09-24T06:06:26;99969.69;;;12.23;100.00
4085;BME280;2057;50.858;6.572;2022-09-24T06:08:52;99972.28;;;12.25;100.00
4085;BME280;2057;50.858;6.572;2022-09-24T06:11:18;99967.25;;;12.27;100.00
4085;BME280;2057;50.858;6.572;2022-09-24T06:13:44;99976.59;;;12.28;100.00
4085;BME280;2057;50.858;6.572;2022-09-24T06:16:10;99975.59;;;12.22;100.00
4085;BME280;2057;50.858;6.572;2022-09-24T06:18:39;99970.22;;;12.15;100.00
4085;BME280;2057;50.858;6.572;2022-09-24T06:21:09;99971.13;;;12.15;100.00
4085;BME280;2057;50.858;6.572;2022-09-24T06:23:36;99968.66;;;12.18;100.00
4085;BME280;2057;50.858;6.572;2022-09-24T06:26:04;99975.88;;;12.30;100.00
4085;BME280;2057;50.858;6.572;2022-09-24T06:28:38;99982.94;;;12.39;100.00
4085;BME280;2057;50.858;6.572;2022-09-24T06:31:04;99983.66;;;12.35;100.00
4085;BME280;2057;50.858;6.572;2022-09-24T06:33:30;99981.16;;;12.36;100.00
4085;BME280;2057;50.858;6.572;2022-09-24T06:36:00;99982.13;;;12.40;100.00
4085;BME280;2057;50.858;6.572;2022-09-24T06:38:26;99983.09;;;12.44;100.00
4085;BME280;2057;50.858;6.572;2022-09-24T06:40:58;99989.03;;;12.44;100.00
4085;BME280;2057;50.858;6.572;2022-09-24T06:43:24;99992.56;;;12.48;100.00
4085;BME280;2057;50.858;6.572;2022-09-24T06:45:49;99995.19;;;12.51;100.00
4085;BME280;2057;50.858;6.572;2022-09-24T06:48:15;99997.66;;;12.48;100.00
4085;BME280;2057;50.858;6.572;2022-09-24T06:50:43;100004.03;;;12.35;100.00
4085;BME280;2057;50.858;6.572;2022-09-24T06:53:10;99998.81;;;12.32;100.00
4085;BME280;2057;50.858;6.572;2022-09-24T06:55:37;99995.47;;;12.33;100.00
4085;BME280;2057;50.858;6.572;2022-09-24T06:58:04;100001.06;;;12.48;100.00
4085;BME280;2057;50.858;6.572;2022-09-24T07:00:33;99997.97;;;12.57;100.00
4085;BME280;2057;50.858;6.572;2022-09-24T07:02:59;99995.31;;;12.54;100.00
4085;BME280;2057;50.858;6.572;2022-09-24T07:05:24;99998.03;;;12.60;100.00
4085;BME280;2057;50.858;6.572;2022-09-24T07:07:50;100002.47;;;12.66;100.00
4085;BME280;2057;50.858;6.572;2022-09-24T07:10:15;100002.59;;;12.69;100.00
4085;BME280;2057;50.858;6.572;2022-09-24T07:12:41;100002.19;;;12.84;100.00
4085;BME280;2057;50.858;6.572;2022-09-24T07:15:08;100001.66;;;12.94;100.00
4085;BME280;2057;50.858;6.572;2022-09-24T07:17:33;99992.50;;;12.99;100.00
4085;BME280;2057;50.858;6.572;2022-09-24T07:19:59;100002.09;;;13.08;100.00
4085;BME280;2057;50.858;6.572;2022-09-24T07:22:25;100002.78;;;13.02;100.00
4085;BME280;2057;50.858;6.572;2022-09-24T07:24:50;100008.69;;;13.01;100.00
4085;BME280;2057;50.858;6.572;2022-09-24T07:27:16;100009.78;;;13.10;100.00
4085;BME280;2057;50.858;6.572;2022-09-24T07:29:43;100010.66;;;13.10;100.00
4085;BME280;2057;50.858;6.572;2022-09-24T07:32:09;100002.91;;;13.07;100.00
4085;BME280;2057;50.858;6.572;2022-09-24T07:34:34;100002.28;;;13.14;100.00
4085;BME280;2057;50.858;6.572;2022-09-24T07:36:59;100004.75;;;13.11;100.00
4085;BME280;2057;50.858;6.572;2022-09-24T07:39:25;100014.31;;;13.18;100.00
4085;BME280;2057;50.858;6.572;2022-09-24T07:41:51;99999.00;;;13.17;100.00
4085;BME280;2057;50.858;6.572;2022-09-24T07:44:20;100006.66;;;13.18;100.00
4085;BME280;2057;50.858;6.572;2022-09-24T07:46:48;100006.22;;;13.32;100.00
4085;BME280;2057;50.858;6.572;2022-09-24T07:49:13;100010.03;;;13.45;100.00
4085;BME280;2057;50.858;6.572;2022-09-24T07:51:38;100011.88;;;13.51;100.00
4085;BME280;2057;50.858;6.572;2022-09-24T07:54:04;100012.03;;;13.55;100.00
4085;BME280;2057;50.858;6.572;2022-09-24T07:56:30;100017.09;;;13.54;100.00
4085;BME280;2057;50.858;6.572;2022-09-24T07:58:57;100017.28;;;13.61;100.00
4085;BME280;2057;50.858;6.572;2022-09-24T08:01:22;100017.41;;;13.64;100.00
4085;BME280;2057;50.858;6.572;2022-09-24T08:03:50;100017.53;;;13.69;100.00
4085;BME280;2057;50.858;6.572;2022-09-24T08:06:16;100015.09;;;13.74;100.00
4085;BME280;2057;50.858;6.572;2022-09-24T08:08:42;100012.84;;;13.85;100.00
4085;BME280;2057;50.858;6.572;2022-09-24T08:11:11;100011.25;;;13.88;100.00
4085;BME280;2057;50.858;6.572;2022-09-24T08:13:37;100011.69;;;14.04;100.00
4085;BME280;2057;50.858;6.572;2022-09-24T08:16:03;100014.38;;;14.08;100.00
4085;BME280;2057;50.858;6.572;2022-09-24T08:18:31;100014.59;;;14.18;100.00
4085;BME280;2057;50.858;6.572;2022-09-24T08:20:58;100016.78;;;14.36;100.00
4085;BME280;2057;50.858;6.572;2022-09-24T08:23:26;100020.00;;;14.28;100.00
4085;BME280;2057;50.858;6.572;2022-09-24T08:25:55;100020.00;;;14.28;100.00
4085;BME280;2057;50.858;6.572;2022-09-24T08:28:20;100021.91;;;14.37;100.00
4085;BME280;2057;50.858;6.572;2022-09-24T08:30:46;100029.66;;;14.40;100.00
4085;BME280;2057;50.858;6.572;2022-09-24T08:33:12;100019.13;;;14.28;100.00
4085;BME280;2057;50.858;6.572;2022-09-24T08:35:39;100023.38;;;14.27;100.00
4085;BME280;2057;50.858;6.572;2022-09-24T08:38:05;100020.59;;;14.52;100.00
4085;BME280;2057;50.858;6.572;2022-09-24T08:40:41;100014.69;;;14.54;100.00
4085;BME280;2057;50.858;6.572;2022-09-24T08:43:28;100012.50;;;14.68;100.00
4085;BME280;2057;50.858;6.572;2022-09-24T08:46:11;100010.84;;;14.70;100.00
4085;BME280;2057;50.858;6.572;2022-09-24T08:48:56;100007.69;;;14.81;100.00
4085;BME280;2057;50.858;6.572;2022-09-24T08:51:23;100012.09;;;14.88;100.00
4085;BME280;2057;50.858;6.572;2022-09-24T08:54:01;100013.00;;;14.88;100.00
4085;BME280;2057;50.858;6.572;2022-09-24T08:56:34;100013.91;;;14.92;100.00
4085;BME280;2057;50.858;6.572;2022-09-24T09:01:45;100017.31;;;14.91;100.00
4085;BME280;2057;50.858;6.572;2022-09-24T09:04:25;100018.34;;;14.99;100.00
4085;BME280;2057;50.858;6.572;2022-09-24T09:12:20;100025.47;;;15.13;100.00
4085;BME280;2057;50.858;6.572;2022-09-24T09:14:50;100023.91;;;15.19;100.00
4085;BME280;2057;50.858;6.572;2022-09-24T09:17:29;100027.81;;;15.03;100.00
4085;BME280;2057;50.858;6.572;2022-09-24T09:19:57;100032.50;;;15.23;100.00
4085;BME280;2057;50.858;6.572;2022-09-24T09:22:28;100036.78;;;15.23;100.00
4085;BME280;2057;50.858;6.572;2022-09-24T09:24:59;100040.59;;;15.42;100.00
4085;BME280;2057;50.858;6.572;2022-09-24T09:27:26;100036.72;;;15.59;100.00
4085;BME280;2057;50.858;6.572;2022-09-24T09:29:56;100041.91;;;15.62;100.00
4085;BME280;2057;50.858;6.572;2022-09-24T09:42:59;100046.94;;;15.59;90.98
4085;BME280;2057;50.858;6.572;2022-09-24T09:45:36;100039.72;;;15.81;90.44
4085;BME280;2057;50.858;6.572;2022-09-24T09:48:04;100048.56;;;15.95;92.11
4085;BME280;2057;50.858;6.572;2022-09-24T09:50:47;100041.78;;;15.97;90.24
4085;BME280;2057;50.858;6.572;2022-09-24T09:55:55;100039.41;;;16.07;91.58
4085;BME280;2057;50.858;6.572;2022-09-24T09:58:23;100040.31;;;16.10;91.44
4085;BME280;2057;50.858;6.572;2022-09-24T10:00:50;100039.69;;;16.22;91.47
4085;BME280;2057;50.858;6.572;2022-09-24T10:03:28;100037.69;;;16.06;91.60
4085;BME280;2057;50.858;6.572;2022-09-24T10:06:00;100040.81;;;15.92;91.26
4085;BME280;2057;50.858;6.572;2022-09-24T10:08:28;100032.50;;;16.03;91.21
4085;BME280;2057;50.858;6.572;2022-09-24T10:11:00;100033.38;;;16.03;92.56
4085;BME280;2057;50.858;6.572;2022-09-24T10:13:26;100037.63;;;16.04;92.57
4085;BME280;2057;50.858;6.572;2022-09-24T10:16:02;100029.28;;;16.13;91.81
4085;BME280;2057;50.858;6.572;2022-09-24T10:18:57;100031.84;;;16.14;92.47
4085;BME280;2057;50.858;6.572;2022-09-24T10:23:58;100026.81;;;16.19;90.85
4085;BME280;2057;50.858;6.572;2022-09-24T10:26:53;100028.47;;;16.15;92.21
4085;BME280;2057;50.858;6.572;2022-09-24T10:29:22;100025.09;;;16.18;93.80
4085;BME280;2057;50.858;6.572;2022-09-24T10:32:17;100022.34;;;16.09;94.32
4085;BME280;2057;50.858;6.572;2022-09-24T10:34:55;100022.41;;;16.10;93.99
4085;BME280;2057;50.858;6.572;2022-09-24T10:37:24;100020.78;;;16.15;94.46
4085;BME280;2057;50.858;6.572;2022-09-24T10:40:01;100019.41;;;15.89;95.79
4085;BME280;2057;50.858;6.572;2022-09-24T10:42:28;100025.53;;;15.95;96.53
4085;BME280;2057;50.858;6.572;2022-09-24T10:44:59;100020.06;;;15.80;96.34
4085;BME280;2057;50.858;6.572;2022-09-24T10:47:52;100017.66;;;15.84;96.77
4085;BME280;2057;50.858;6.572;2022-09-24T10:50:36;100021.06;;;15.85;98.09
4085;BME280;2057;50.858;6.572;2022-09-24T10:53:12;100020.06;;;15.80;98.21
4085;BME280;2057;50.858;6.572;2022-09-24T11:04:24;100018.34;;;15.79;99.21
4085;BME280;2057;50.858;6.572;2022-09-24T11:18:36;100016.91;;;15.92;98.58
4085;BME280;2057;50.858;6.572;2022-09-24T11:27:09;100010.03;;;16.35;95.18
4085;BME280;2057;50.858;6.572;2022-09-24T11:44:49;100013.91;;;16.63;92.54
4085;BME280;2057;50.858;6.572;2022-09-24T11:53:25;100008.72;;;16.59;91.18
4085;BME280;2057;50.858;6.572;2022-09-24T11:56:00;100002.59;;;16.51;89.97
4085;BME280;2057;50.858;6.572;2022-09-24T11:58:34;100004.47;;;16.59;89.97
4085;BME280;2057;50.858;6.572;2022-09-24T12:01:18;100002.81;;;16.63;90.01
4085;BME280;2057;50.858;6.572;2022-09-24T12:03:59;100004.34;;;16.53;90.66
4085;BME280;2057;50.858;6.572;2022-09-24T12:06:45;100000.59;;;16.33;91.32
4085;BME280;2057;50.858;6.572;2022-09-24T12:09:57;99996.41;;;16.36;90.19
4085;BME280;2057;50.858;6.572;2022-09-24T12:12:31;100000.19;;;16.60;91.24
4085;BME280;2057;50.858;6.572;2022-09-24T12:20:48;99996.34;;;16.85;87.57
4085;BME280;2057;50.858;6.572;2022-09-24T12:23:17;99990.25;;;16.78;87.61
4085;BME280;2057;50.858;6.572;2022-09-24T12:25:46;99992.81;;;16.78;87.99
4085;BME280;2057;50.858;6.572;2022-09-24T12:28:18;99988.44;;;16.74;89.03
4085;BME280;2057;50.858;6.572;2022-09-24T12:31:28;99991.97;;;16.80;88.58
4085;BME280;2057;50.858;6.572;2022-09-24T12:34:28;99988.50;;;16.77;90.00
4085;BME280;2057;50.858;6.572;2022-09-24T12:37:01;99987.94;;;16.96;88.92
4085;BME280;2057;50.858;6.572;2022-09-24T12:39:37;99983.78;;;17.02;88.43
4085;BME280;2057;50.858;6.572;2022-09-24T12:42:08;99986.41;;;17.07;88.21
4085;BME280;2057;50.858;6.572;2022-09-24T12:44:49;99989.66;;;16.95;87.56
4085;BME280;2057;50.858;6.572;2022-09-24T12:47:22;99984.38;;;16.87;89.06
4085;BME280;2057;50.858;6.572;2022-09-24T12:50:03;99987.09;;;16.93;89.83
4085;BME280;2057;50.858;6.572;2022-09-24T12:52:38;99982.94;;;17.02;88.64
4085;BME280;2057;50.858;6.572;2022-09-24T12:55:04;99981.28;;;17.07;89.80
4085;BME280;2057;50.858;6.572;2022-09-24T12:57:35;99985.63;;;17.11;88.29
4085;BME280;2057;50.858;6.572;2022-09-24T13:02:55;99976.53;;;16.78;89.40
4085;BME280;2057;50.858;6.572;2022-09-24T13:10:55;99976.13;;;17.05;90.05
4085;BME280;2057;50.858;6.572;2022-09-24T13:13:26;99983.97;;;17.15;90.27
4085;BME280;2057;50.858;6.572;2022-09-24T13:16:17;99979.56;;;17.06;89.78
4085;BME280;2057;50.858;6.572;2022-09-24T13:18:54;99972.75;;;17.08;89.30
4085;BME280;2057;50.858;6.572;2022-09-24T13:21:25;99969.16;;;16.97;89.89
4085;BME280;2057;50.858;6.572;2022-09-24T13:23:52;99976.19;;;17.10;90.94
4085;BME280;2057;50.858;6.572;2022-09-24T13:29:21;99971.91;;;17.09;89.12
4085;BME280;2057;50.858;6.572;2022-09-24T13:31:48;99974.41;;;17.04;89.81
4085;BME280;2057;50.858;6.572;2022-09-24T13:44:25;99984.38;;;16.87;85.36
4085;BME280;2057;50.858;6.572;2022-09-24T13:46:57;99976.66;;;16.84;84.85
4085;BME280;2057;50.858;6.572;2022-09-24T13:49:24;99980.81;;;16.76;84.73
4085;BME280;2057;50.858;6.572;2022-09-24T13:53:13;99973.94;;;16.75;84.98
4085;BME280;2057;50.858;6.572;2022-09-24T13:55:14;99982.63;;;16.83;84.12
4085;BME280;2057;50.858;6.572;2022-09-24T13:57:45;99978.78;;;16.58;85.84
4085;BME280;2057;50.858;6.572;2022-09-24T14:00:18;99976.22;;;16.58;87.44
4085;BME280;2057;50.858;6.572;2022-09-24T14:05:18;99974.78;;;16.72;86.72
4085;BME280;2057;50.858;6.572;2022-09-24T14:08:04;99979.06;;;16.75;87.66
4085;BME280;2057;50.858;6.572;2022-09-24T14:10:34;99979.22;;;16.84;87.46
4085;BME280;2057;50.858;6.572;2022-09-24T14:13:23;99975.59;;;16.71;87.13
4085;BME280;2057;50.858;6.572;2022-09-24T14:16:05;99978.09;;;16.67;87.11
4085;BME280;2057;50.858;6.572;2022-09-24T14:18:31;99977.88;;;16.54;87.08
4085;BME280;2057;50.858;6.572;2022-09-24T14:21:03;99976.28;;;16.61;87.86
4085;BME280;2057;50.858;6.572;2022-09-24T14:23:52;99972.00;;;16.61;87.62
4085;BME280;2057;50.858;6.572;2022-09-24T14:26:31;99971.94;;;16.55;87.96
4085;BME280;2057;50.858;6.572;2022-09-24T14:29:12;99965.16;;;16.60;87.61
4085;BME280;2057;50.858;6.572;2022-09-24T14:31:46;99980.41;;;16.51;88.14
4085;BME280;2057;50.858;6.572;2022-09-24T14:34:38;99970.94;;;16.47;88.05
4085;BME280;2057;50.858;6.572;2022-09-24T14:37:17;99978.84;;;16.59;89.60
4085;BME280;2057;50.858;6.572;2022-09-24T14:39:45;99967.03;;;16.71;89.52
4085;BME280;2057;50.858;6.572;2022-09-24T14:42:24;99973.66;;;16.58;89.46
4085;BME280;2057;50.858;6.572;2022-09-24T14:44:52;99968.53;;;16.56;88.83
4085;BME280;2057;50.858;6.572;2022-09-24T14:47:27;99971.94;;;16.55;88.70
4085;BME280;2057;50.858;6.572;2022-09-24T14:49:53;99969.22;;;16.46;88.67
4085;BME280;2057;50.858;6.572;2022-09-24T14:52:31;99972.72;;;16.51;89.71
4085;BME280;2057;50.858;6.572;2022-09-24T14:55:17;99967.38;;;16.37;89.68
4085;BME280;2057;50.858;6.572;2022-09-24T14:57:44;99974.34;;;16.46;89.75
4085;BME280;2057;50.858;6.572;2022-09-24T15:00:31;99971.03;;;16.52;90.54
4085;BME280;2057;50.858;6.572;2022-09-24T15:03:02;99969.19;;;16.43;90.43
4085;BME280;2057;50.858;6.572;2022-09-24T15:05:29;99970.03;;;16.45;90.22
4085;BME280;2057;50.858;6.572;2022-09-24T15:11:15;99973.50;;;16.47;91.47
4085;BME280;2057;50.858;6.572;2022-09-24T15:13:42;99970.88;;;16.44;91.86
4085;BME280;2057;50.858;6.572;2022-09-24T15:16:40;99962.97;;;16.30;91.08
4085;BME280;2057;50.858;6.572;2022-09-24T15:21:32;99967.38;;;16.39;91.85
4085;BME280;2057;50.858;6.572;2022-09-24T15:23:57;99964.81;;;16.39;91.50
4085;BME280;2057;50.858;6.572;2022-09-24T15:26:28;99962.91;;;16.25;91.07
4085;BME280;2057;50.858;6.572;2022-09-24T15:28:58;99967.13;;;16.23;91.94
4085;BME280;2057;50.858;6.572;2022-09-24T15:31:26;99966.91;;;16.11;91.87